Data for 07/14/2009

Time Sea-Level Adjusted Pressure Absolute Pressure Temperature Relative Humidity Dew Point   
(mb) (inHg) (mb) (inHg) (C) (F) (%) (C) (F)
00:05 1019 30.09 849 25.07 10.9 51.6 77 7.1 44.7
00:10 1019 30.09 849 25.07 10.9 51.6 80 7.6 45.7
00:15 1019 30.09 849 25.07 10.7 51.3 80 7.4 45.3
00:20 1019 30.09 849 25.07 10.6 51.1 82 7.7 45.9
00:25 1019 30.09 849 25.07 10.7 51.3 80 7.4 45.4
00:30 1019 30.09 848 25.04 10.9 51.6 72 6.1 42.9
00:35 1019 30.09 848 25.04 11.2 52.1 66 5.2 41.3
00:40 1019 30.09 848 25.04 11.6 52.8 66 5.4 41.8
00:45 1019 30.09 848 25.04 11.5 52.7 68 5.8 42.4
00:50 1019 30.09 848 25.04 11.4 52.5 69 6 42.8
00:55 1019 30.09 848 25.04 11.3 52.3 69 5.9 42.6
01:00 1019 30.09 848 25.04 11.3 52.4 66 5.2 41.4
01:05 1019 30.09 848 25.04 11.6 52.9 64 5.2 41.3
01:10 1019 30.09 848 25.04 11.7 53.1 65 5.3 41.6
01:15 1019 30.09 848 25.04 11.6 52.9 67 5.6 42.1
01:20 1019 30.09 848 25.04 11.3 52.4 68 5.8 42.4
01:25 1019 30.09 848 25.04 11.2 52.1 70 5.9 42.6
01:30 1019 30.09 848 25.04 11.1 52 69 5.8 42.4
01:35 1019 30.09 848 25.04 11.2 52.2 67 5.4 41.6
01:40 1019 30.09 848 25.04 11.4 52.5 67 5.4 41.7
01:45 1019 30.09 848 25.04 11.4 52.6 66 5.4 41.7
01:50 1019 30.09 848 25.04 11.5 52.8 64 5.1 41.2
01:55 1019 30.09 848 25.04 11.7 53 64 5.1 41.1
02:00 1019 30.09 848 25.04 11.8 53.3 61 4.7 40.4
02:05 1019 30.09 848 25.04 12 53.7 60 4.5 40.1
02:10 1019 30.09 848 25.04 12.1 53.8 60 4.6 40.2
02:15 1019 30.09 848 25.04 12.1 53.8 60 4.6 40.3
02:20 1019 30.09 848 25.04 12.2 53.9 60 4.8 40.6
02:25 1019 30.09 848 25.04 12.1 53.8 62 5.1 41.2
02:30 1019 30.09 848 25.04 12 53.5 64 5.4 41.8
02:35 1019 30.09 848 25.04 11.9 53.3 64 5.4 41.6
02:40 1019 30.09 848 25.04 11.8 53.2 65 5.4 41.8
02:45 1019 30.09 848 25.04 11.7 53 63 4.9 40.8
02:50 1019 30.09 848 25.04 11.7 53.1 64 5.1 41.2
02:55 1019 30.09 848 25.04 11.7 53 65 5.3 41.6
03:00 1019 30.09 848 25.04 11.8 53.2 64 5.2 41.3
03:05 1019 30.09 848 25.04 11.9 53.4 62 4.9 40.8
03:10 1019 30.09 848 25.04 12 53.7 61 4.7 40.5
03:15 1019 30.09 848 25.04 12.2 53.9 60 4.6 40.3
03:20 1019 30.09 848 25.04 12.2 54 61 4.9 40.9
03:25 1019 30.09 848 25.04 12.1 53.7 63 5.2 41.3
03:30 1019 30.09 848 25.04 11.9 53.4 65 5.7 42.3
03:35 1019 30.09 848 25.04 11.7 53.1 67 5.9 42.6
03:40 1019 30.09 848 25.04 11.5 52.6 75 7.1 44.8
03:45 1019 30.09 848 25.04 11.2 52.1 77 7.3 45.2
03:50 1019 30.09 848 25.04 11 51.9 76 7 44.6
03:55 1019 30.09 848 25.04 11 51.8 75 6.7 44.1
04:00 1019 30.09 848 25.04 11 51.8 77 7.2 44.9
04:05 1019 30.09 848 25.04 11 51.8 76 7 44.7
04:10 1019 30.09 848 25.04 11 51.8 77 7 44.7
04:15 1019 30.09 848 25.04 11.1 52 74 6.7 44.1
04:20 1019 30.09 848 25.04 11.4 52.5 68 5.8 42.5
04:25 1019 30.09 848 25.04 11.6 53 69 6.1 43
04:30 1019 30.09 848 25.04 11.7 53.1 68 6 42.7
04:35 1019 30.09 848 25.04 11.8 53.2 69 6.3 43.4
04:40 1019 30.09 848 25.04 11.7 53.1 67 5.9 42.7
04:45 1019 30.09 848 25.04 12 53.6 65 5.7 42.2
04:50 1019 30.09 848 25.04 12.2 53.9 63 5.4 41.7
04:55 1019 30.09 848 25.04 12.4 54.4 62 5.4 41.8
05:00 1019 30.09 849 25.07 12.5 54.4 65 6 42.9
05:05 1019 30.09 849 25.07 12.3 54.2 67 6.3 43.4
05:10 1020 30.12 849 25.07 12.1 53.8 69 6.5 43.8
05:15 1020 30.12 849 25.07 11.9 53.4 71 6.8 44.2
05:20 1020 30.12 849 25.07 11.8 53.2 73 7.2 44.9
05:25 1020 30.12 849 25.07 11.5 52.7 77 7.6 45.7
05:30 1020 30.12 849 25.07 11.2 52.1 78 7.6 45.6
05:35 1020 30.12 849 25.07 10.9 51.7 79 7.5 45.5
05:40 1020 30.12 849 25.07 10.9 51.6 78 7.3 45.1
05:45 1020 30.12 849 25.07 11.2 52.1 73 6.6 43.9
05:50 1020 30.12 849 25.07 11.4 52.4 73 6.8 44.2
05:55 1020 30.12 849 25.07 11.3 52.4 74 6.9 44.4
06:00 1020 30.12 850 25.1 11.2 52.2 75 7 44.5
06:05 1020 30.12 850 25.1 11.2 52.1 76 7 44.7
06:10 1020 30.12 850 25.1 11.1 52 77 7.2 44.9
06:15 1020 30.12 850 25.1 11 51.9 78 7.3 45.1
06:20 1021 30.15 850 25.1 11 51.8 78 7.4 45.2
06:25 1021 30.15 850 25.1 11 51.8 77 7.2 45
06:30 1021 30.15 850 25.1 11 51.7 78 7.2 45
06:35 1021 30.15 850 25.1 11 51.8 78 7.3 45.2
06:40 1021 30.15 850 25.1 11 51.7 79 7.5 45.4
06:45 1021 30.15 850 25.1 11 51.7 79 7.4 45.4
06:50 1021 30.15 850 25.1 11 51.8 78 7.3 45.2
06:55 1021 30.15 850 25.1 11.1 51.9 78 7.3 45.2
07:00 1021 30.15 850 25.1 11.2 52.2 77 7.4 45.4
07:05 1021 30.15 850 25.1 11.3 52.3 76 7.3 45.1
07:10 1021 30.15 850 25.1 11.4 52.5 76 7.3 45.2
07:15 1021 30.15 851 25.13 11.4 52.6 76 7.3 45.2
07:20 1021 30.15 851 25.13 11.4 52.5 75 7.2 45
07:25 1021 30.15 851 25.13 11.5 52.6 75 7.2 45
07:30 1021 30.15 851 25.13 11.6 52.9 76 7.5 45.6
07:35 1021 30.15 851 25.13 11.7 53 75 7.4 45.4
07:40 1021 30.15 851 25.13 11.7 53.1 75 7.6 45.6
07:45 1021 30.15 851 25.13 11.7 53.1 77 7.8 46
07:50 1022 30.18 851 25.13 11.8 53.2 76 7.8 46
07:55 1022 30.18 851 25.13 11.8 53.3 77 7.9 46.2
08:00 1022 30.18 851 25.13 11.8 53.2 75 7.6 45.6
08:05 1022 30.18 851 25.13 11.8 53.3 75 7.5 45.5
08:10 1022 30.18 851 25.13 12 53.5 75 7.7 45.8
08:15 1022 30.18 851 25.13 12 53.6 75 7.7 45.9
08:20 1022 30.18 851 25.13 12 53.7 75 7.8 46.1
08:25 1022 30.18 851 25.13 12 53.6 75 7.6 45.7
08:30 1022 30.18 851 25.13 11.7 53.1 76 7.6 45.7
08:35 1022 30.18 851 25.13 11.5 52.8 79 8 46.4
08:40 1022 30.18 851 25.13 11.4 52.5 78 7.7 45.8
08:45 1022 30.18 851 25.13 11.5 52.7 75 7.2 44.9
08:50 1022 30.18 851 25.13 11.7 53.1 73 7.1 44.8
08:55 1022 30.18 851 25.13 12 53.7 74 7.5 45.5
09:00 1022 30.18 852 25.16 12.2 54 73 7.5 45.5
09:05 1022 30.18 852 25.16 12.3 54.2 74 7.8 46.1
09:10 1022 30.18 851 25.13 12.4 54.3 75 8.2 46.7
09:15 1022 30.18 852 25.16 12.3 54.2 71 7.2 44.9
09:20 1022 30.18 852 25.16 12.3 54.2 71 7.2 45
09:25 1022 30.18 852 25.16 12.2 54 73 7.5 45.5
09:30 1022 30.18 852 25.16 12.2 54 71 7.2 45
09:35 1023 30.21 852 25.16 12.3 54.2 72 7.4 45.4
09:40 1023 30.21 852 25.16 12.6 54.6 71 7.6 45.6
09:45 1023 30.21 852 25.16 12.7 54.8 71 7.5 45.5
09:50 1023 30.21 852 25.16 12.8 55 72 7.9 46.2
09:55 1023 30.21 852 25.16 12.9 55.2 72 7.9 46.3
10:00 1023 30.21 852 25.16 13 55.3 72 8.1 46.7
10:05 1023 30.21 852 25.16 13.3 55.9 70 8 46.5
10:10 1023 30.21 852 25.16 13.6 56.4 68 7.8 46
10:15 1023 30.21 852 25.16 13.6 56.6 67 7.7 45.9
10:20 1023 30.21 852 25.16 13.6 56.6 65 7.3 45.2
10:25 1023 30.21 852 25.16 13.7 56.6 66 7.6 45.6
10:30 1023 30.21 852 25.16 13.8 56.9 66 7.6 45.7
10:35 1023 30.21 852 25.16 13.9 57 66 7.6 45.7
10:40 1023 30.21 852 25.16 14 57.2 65 7.7 45.8
10:45 1023 30.21 852 25.16 14.1 57.4 65 7.7 45.8
10:50 1023 30.21 852 25.16 14.3 57.8 64 7.6 45.7
10:55 1023 30.21 852 25.16 14.7 58.5 61 7.4 45.3
11:00 1023 30.21 852 25.16 15 58.9 59 7.2 45
11:05 1023 30.21 852 25.16 15 59 61 7.6 45.6
11:10 1023 30.21 852 25.16 15.1 59.1 58 6.9 44.5
11:15 1023 30.21 852 25.16 16 60.7 55 7.1 44.8
11:20 1023 30.21 852 25.16 16 60.8 56 7.4 45.3
11:25 1023 30.21 852 25.16 16.4 61.5 53 6.9 44.3
11:30 1023 30.21 852 25.16 16.5 61.6 53 6.8 44.3
11:35 1023 30.21 852 25.16 16.7 62.1 52 6.8 44.3
11:40 1023 30.21 852 25.16 16.9 62.4 51 6.9 44.5
11:45 1023 30.21 852 25.16 17.7 63.9 51 7.6 45.7
11:50 1023 30.21 852 25.16 17.7 63.9 50 7.2 44.9
11:55 1023 30.21 852 25.16 17.5 63.5 50 7 44.6
12:00 1023 30.21 852 25.16 17.3 63.2 51 7.3 45.1
12:05 1023 30.21 852 25.16 17.1 62.9 51 6.9 44.5
12:10 1023 30.21 852 25.16 17.2 63 52 7.5 45.5
12:15 1023 30.21 852 25.16 17.9 64.1 48 6.9 44.5
12:20 1023 30.21 852 25.16 18.3 64.9 48 7.2 44.9
12:25 1023 30.21 852 25.16 18.5 65.3 48 7.6 45.6
12:30 1023 30.21 852 25.16 18.1 64.6 49 7.4 45.3
12:35 1023 30.21 852 25.16 17.9 64.1 48 6.8 44.2
12:40 1023 30.21 852 25.16 17.7 63.8 49 6.9 44.5
12:45 1023 30.21 852 25.16 18 64.4 47 6.6 43.9
12:50 1023 30.21 852 25.16 17.9 64.3 48 6.9 44.4
12:55 1023 30.21 852 25.16 18.3 65 48 7.4 45.3
13:00 1023 30.21 852 25.16 18.7 65.6 47 7.3 45.2
13:05 1023 30.21 852 25.16 18.3 65 47 7.1 44.7
13:10 1023 30.21 852 25.16 17.6 63.8 50 7.3 45.1
13:15 1023 30.21 852 25.16 17.5 63.6 51 7.3 45.1
13:20 1023 30.21 852 25.16 18.2 64.8 49 7.5 45.4
13:25 1023 30.21 852 25.16 18 64.4 50 7.5 45.5
13:30 1023 30.21 852 25.16 18.5 65.3 48 7.3 45.1
13:35 1023 30.21 852 25.16 19.2 66.6 43 6.5 43.6
13:40 1023 30.21 852 25.16 18.5 65.3 49 7.7 45.9
13:45 1023 30.21 852 25.16 18.5 65.3 46 6.7 44.1
13:50 1023 30.21 852 25.16 19.4 66.9 43 6.5 43.7
13:55 1023 30.21 852 25.16 20.5 69 41 7.1 44.8
14:00 1023 30.21 852 25.16 20.4 68.7 43 7.4 45.4
14:05 1023 30.21 852 25.16 19.9 67.8 46 7.9 46.3
14:10 1023 30.21 852 25.16 20.2 68.3 43 7.5 45.5
14:15 1023 30.21 852 25.16 20.2 68.4 44 7.8 46.1
14:20 1023 30.21 852 25.16 20.3 68.5 43 7.3 45.2
14:25 1023 30.21 852 25.16 19.8 67.7 42 6.8 44.3
14:30 1023 30.21 852 25.16 19.9 67.9 43 7.2 45
14:35 1023 30.21 852 25.16 19.7 67.4 42 6.7 44.1
14:40 1023 30.21 852 25.16 19.7 67.4 42 6.7 44
14:45 1023 30.21 852 25.16 20.1 68.1 43 7.1 44.8
14:50 1023 30.21 852 25.16 19.8 67.6 42 6.7 44
14:55 1023 30.21 852 25.16 19.6 67.3 44 7.1 44.7
15:00 1023 30.21 852 25.16 19.5 67 45 7.2 45
15:05 1023 30.21 852 25.16 19.7 67.4 43 6.8 44.2
15:10 1023 30.21 852 25.16 19.9 67.7 43 7.1 44.8
15:15 1023 30.21 852 25.16 20.5 68.8 41 6.8 44.3
15:20 1023 30.21 852 25.16 20.4 68.7 41 6.7 44.1
15:25 1023 30.21 852 25.16 20.7 69.3 39 6.6 43.8
15:30 1023 30.21 852 25.16 20.2 68.3 42 7 44.6
15:35 1023 30.21 852 25.16 20 68 41 6.5 43.8
15:40 1023 30.21 852 25.16 19.6 67.2 44 7.3 45.1
15:45 1023 30.21 852 25.16 19 66.3 45 6.8 44.3
15:50 1023 30.21 852 25.16 18.6 65.6 45 6.5 43.7
15:55 1023 30.21 852 25.16 18.5 65.3 47 7 44.6
16:00 1023 30.21 852 25.16 18.6 65.4 48 7.5 45.4
16:05 1023 30.21 852 25.16 18.6 65.5 47 7.1 44.8
16:10 1023 30.21 852 25.16 18.9 66.1 46 7.1 44.8
16:15 1023 30.21 852 25.16 18.6 65.5 48 7.6 45.7
16:20 1023 30.21 852 25.16 18.3 64.9 49 7.4 45.3
16:25 1023 30.21 852 25.16 18 64.4 54 8.7 47.6
16:30 1023 30.21 852 25.16 17 62.7 57 8.4 47.2
16:35 1023 30.21 852 25.16 17 62.6 61 9.4 49
16:40 1023 30.21 852 25.16 17.2 62.9 57 8.7 47.7
16:45 1023 30.21 852 25.16 17.4 63.3 53 7.9 46.3
16:50 1023 30.21 852 25.16 17.6 63.7 54 8.3 46.9
16:55 1023 30.21 852 25.16 17.8 64.1 52 7.9 46.2
17:00 1023 30.21 852 25.16 18.4 65 50 7.9 46.2
17:05 1023 30.21 852 25.16 18.5 65.3 49 7.6 45.7
17:10 1023 30.21 852 25.16 18.9 65.9 48 7.9 46.2
17:15 1023 30.21 852 25.16 18.5 65.2 48 7.4 45.3
17:20 1023 30.21 852 25.16 19.3 66.7 47 7.9 46.2
17:25 1023 30.21 852 25.16 19 66.3 50 8.4 47.2
17:30 1023 30.21 852 25.16 18.1 64.6 54 8.8 47.8
17:35 1023 30.21 852 25.16 17.7 63.8 53 8.1 46.5
17:40 1023 30.21 852 25.16 17.3 63.1 55 8.3 47
17:45 1023 30.21 852 25.16 17.2 62.9 55 8.2 46.8
17:50 1023 30.21 852 25.16 17.3 63.1 56 8.5 47.3
17:55 1022 30.18 852 25.16 17.5 63.4 54 8.2 46.8
18:00 1022 30.18 852 25.16 17.4 63.3 56 8.5 47.3
18:05 1022 30.18 852 25.16 17 62.7 56 8.2 46.8
18:10 1022 30.18 852 25.16 17.4 63.3 55 8.4 47.1
18:15 1022 30.18 852 25.16 17.7 63.8 55 8.8 47.8
18:20 1022 30.18 852 25.16 17.7 63.8 55 8.7 47.7
18:25 1022 30.18 852 25.16 17.9 64.2 51 7.7 45.9
18:30 1022 30.18 852 25.16 18.3 65 51 8 46.5
18:35 1022 30.18 851 25.13 18.5 65.4 52 8.5 47.3
18:40 1022 30.18 851 25.13 18.5 65.3 50 8 46.3
18:45 1022 30.18 851 25.13 18.1 64.5 53 8.4 47.1
18:50 1022 30.18 851 25.13 18.1 64.6 51 8.1 46.5
18:55 1022 30.18 851 25.13 18.5 65.3 49 7.7 45.9
19:00 1022 30.18 851 25.13 19.1 66.4 47 7.7 45.8
19:05 1022 30.18 851 25.13 19.4 66.9 47 7.8 46
19:10 1022 30.18 851 25.13 19 66.3 48 7.9 46.2
19:15 1022 30.18 851 25.13 18.7 65.7 47 7.4 45.4
19:20 1022 30.18 851 25.13 19.1 66.4 47 7.8 46.1
19:25 1022 30.18 851 25.13 19 66.1 49 8.2 46.8
19:30 1022 30.18 851 25.13 18.4 65.2 52 8.4 47.2
19:35 1022 30.18 851 25.13 18.3 64.9 50 7.7 45.9
19:40 1022 30.18 851 25.13 18.1 64.6 50 7.7 45.9
19:45 1022 30.18 851 25.13 18.3 64.9 51 8.2 46.7
19:50 1022 30.18 851 25.13 18 64.4 52 8.2 46.7
19:55 1022 30.18 851 25.13 18 64.4 50 7.6 45.7
20:00 1022 30.18 851 25.13 18 64.5 52 8.1 46.5
20:05 1022 30.18 852 25.16 17.9 64.2 54 8.4 47.2
20:10 1022 30.18 852 25.16 17.9 64.3 51 7.9 46.2
20:15 1022 30.18 852 25.16 17.9 64.3 52 7.9 46.2
20:20 1022 30.18 852 25.16 17.9 64.2 53 8.3 47
20:25 1022 30.18 852 25.16 17.7 63.9 58 9.4 48.9
20:30 1022 30.18 852 25.16 17.6 63.6 53 7.9 46.3
20:35 1022 30.18 852 25.16 17.4 63.4 52 7.6 45.6
20:40 1022 30.18 852 25.16 17.4 63.3 53 8 46.3
20:45 1022 30.18 852 25.16 17.4 63.3 53 7.9 46.2
20:50 1022 30.18 852 25.16 17.2 63 54 7.9 46.1
20:55 1022 30.18 852 25.16 17.2 62.9 53 7.5 45.6
21:00 1022 30.18 852 25.16 17.2 62.9 55 8.1 46.6
21:05 1022 30.18 852 25.16 16.9 62.5 58 8.8 47.8
21:10 1022 30.18 852 25.16 16.6 61.9 60 8.9 48.1
21:15 1022 30.18 852 25.16 16.4 61.4 62 9 48.3
21:20 1022 30.18 852 25.16 16.1 60.9 64 9.3 48.7
21:25 1023 30.21 852 25.16 15.7 60.3 65 9.2 48.6
21:30 1023 30.21 852 25.16 15.5 60 68 9.7 49.5
21:35 1023 30.21 852 25.16 15.3 59.6 66 9.2 48.5
21:40 1023 30.21 852 25.16 15.3 59.5 67 9.3 48.7
21:45 1023 30.21 852 25.16 15.2 59.3 70 9.8 49.7
21:50 1023 30.21 852 25.16 14.9 58.9 70 9.5 49.2
21:55 1023 30.21 852 25.16 14.6 58.2 72 9.5 49.2
22:00 1023 30.21 852 25.16 14.2 57.5 73 9.5 49.2
22:05 1023 30.21 852 25.16 13.9 56.9 75 9.5 49.2
22:10 1023 30.21 852 25.16 13.5 56.3 77 9.5 49.1
22:15 1023 30.21 852 25.16 13.1 55.5 75 8.9 48
22:20 1023 30.21 852 25.16 13 55.5 72 8.2 46.8
22:25 1023 30.21 852 25.16 13.1 55.6 71 7.9 46.3
22:30 1023 30.21 852 25.16 13.1 55.6 72 8.1 46.6
22:35 1023 30.21 852 25.16 13.1 55.6 72 8.2 46.8
22:40 1023 30.21 852 25.16 13.1 55.6 72 8.2 46.8
22:45 1023 30.21 852 25.16 13.1 55.6 73 8.3 47
22:50 1023 30.21 852 25.16 12.9 55.2 73 8.2 46.7
22:55 1023 30.21 852 25.16 12.7 54.8 74 8.1 46.6
23:00 1023 30.21 852 25.16 12.6 54.7 74 8.1 46.5
23:05 1023 30.21 852 25.16 12.5 54.4 75 8.2 46.8
23:10 1023 30.21 852 25.16 12.3 54.2 75 8 46.4
23:15 1023 30.21 852 25.16 12.5 54.5 74 8 46.3
23:20 1023 30.21 852 25.16 12.4 54.3 74 7.9 46.3
23:25 1023 30.21 852 25.16 12.4 54.2 74 7.9 46.1
23:30 1023 30.21 852 25.16 12.4 54.4 73 7.7 45.9
23:35 1023 30.21 852 25.16 12.3 54.1 73 7.6 45.8
23:40 1023 30.21 852 25.16 12.1 53.8 72 7.3 45.1
23:45 1023 30.21 852 25.16 12 53.6 71 7 44.6
23:50 1023 30.21 852 25.16 12 53.5 72 7.1 44.8
23:55 1023 30.21 852 25.16 12 53.5 71 6.9 44.4
24:00 1023 30.21 852 25.16 12 53.6 71 7 44.6